Glasston, ND

7:05 PM CDT on June 02, 2015 (GMT -0500)
Cavalier | | Change Station
CLOSE
Current Station
Airport
Location: Cavalier,
Elevation: 892 ft
Nearby Weather Stations

Elev 892 ft 48.78 °N, 97.63 °W | Updated 10 minutes ago

Thunderstorm
Thunderstorm
63 °F
Feels Like 63 °F
N
7
Wind Variable Wind from NNE

Today
High -- | Low -- °F
--% Chance of Precip.
Yesterday
High -- | Low -- °F
Precip. -- in
5:30 AM 9:25 PM
Full, 100% visible
Pressure 29.81 in
Visibility 10.0 miles
Clouds Mostly Cloudy 600 ft
Overcast 2500 ft
Dew Point 63 °F
Humidity 100%
Rainfall 0.92 in
Snow Depth Not available.
UV 1 out of 12
Pollen 8.00 out of 12
Air Quality Not available.
Flu Activity Sporadic
METAR K2C8 022355Z AUTO 03006KT 10SM VCTS BKN006 OVC025 17/17 A2981 RMK AO2 LTG DSNT E-SW

More Conditions Fewer Conditions

Pressure 29.81 in
Visibility 10.0 miles
Clouds Mostly Cloudy 600 ft
Overcast 2500 ft
Dew Point 63 °F
Humidity 100%
Rainfall 0.92 in
Snow Depth Not available.
UV 1 out of 12
Pollen 8.00 out of 12
Air Quality Not available.
Flu Activity Sporadic
METAR K2C8 022355Z AUTO 03006KT 10SM VCTS BKN006 OVC025 17/17 A2981 RMK AO2 LTG DSNT E-SW

More Conditions Fewer Conditions

10-Day Weather Forecast

×

Almanac

Astronomy

Jun. 02, 2015 Rise Set
Actual Time
Civil Twilight
Nautical Twilight
Astronomical Twilight
Moon
Length of Visible Light
Length of Day
Tomorrow will be .
, % of the Moon is Illuminated

Today's Extremes

State Highs State Lows

Community

WunderPhotos

Upload Photos

1,826,063 photos uploaded!

WunderBlogs® & News

Nearby

Air Quality

  Air Quality AQ Index Pollutant
Not available.

Snow Depth

Station Depth Elevation

Earthquake Activity

City Distance Mag. Time & Date
Minimum magnitude displayed is 2.5.

Coastal Water Temperatures

Place Temperature

Stations

Nearby Weather Stations

Station Location Temp. Windchill Dew Point Humidity Wind Precip. Elev Updated Type